createdAt,value
2022-11-15T00:00:57.256Z,99.66
2022-11-15T00:03:26.377Z,99.90
2022-11-15T00:05:53.521Z,100.00
2022-11-15T00:08:20.606Z,100.00
2022-11-15T00:11:01.023Z,100.00
2022-11-15T00:13:29.069Z,100.00
2022-11-15T00:16:01.936Z,100.00
2022-11-15T00:18:29.924Z,100.00
2022-11-15T00:20:57.115Z,100.00
2022-11-15T00:23:23.797Z,100.00
2022-11-15T00:25:57.767Z,100.00
2022-11-15T00:28:25.036Z,100.00
2022-11-15T00:30:51.871Z,100.00
2022-11-15T00:33:19.193Z,100.00
2022-11-15T00:35:45.858Z,100.00
2022-11-15T00:38:12.449Z,100.00
2022-11-15T00:40:39.067Z,100.00
2022-11-15T00:43:05.523Z,100.00
2022-11-15T00:45:32.139Z,100.00
2022-11-15T00:47:58.721Z,99.84
2022-11-15T00:50:25.414Z,99.66
2022-11-15T00:52:51.982Z,100.00
2022-11-15T00:55:20.159Z,99.80
2022-11-15T00:57:48.060Z,100.00
2022-11-15T01:00:14.915Z,99.88
2022-11-15T01:02:41.685Z,100.00
2022-11-15T01:05:08.867Z,100.00
2022-11-15T01:07:35.639Z,99.70
2022-11-15T01:10:02.333Z,100.00
2022-11-15T01:12:29.079Z,100.00
2022-11-15T01:14:55.771Z,100.00
2022-11-15T01:17:22.570Z,100.00
2022-11-15T01:19:49.152Z,100.00
2022-11-15T01:22:15.870Z,100.00
2022-11-15T01:24:42.788Z,100.00
2022-11-15T01:27:09.805Z,100.00
2022-11-15T01:29:36.455Z,99.61
2022-11-15T01:32:03.408Z,99.30
2022-11-15T01:34:29.898Z,98.55
2022-11-15T01:36:56.604Z,98.99
2022-11-15T01:39:23.252Z,99.71
2022-11-15T01:41:49.937Z,98.97
2022-11-15T01:44:34.727Z,99.66
2022-11-15T01:47:04.232Z,98.98
2022-11-15T01:49:34.972Z,99.50
2022-11-15T01:52:05.031Z,98.49
2022-11-15T01:54:32.228Z,99.35
2022-11-15T01:57:11.167Z,98.83
2022-11-15T01:59:41.662Z,99.37
2022-11-15T02:02:08.698Z,98.66
2022-11-15T02:04:40.690Z,98.22
2022-11-15T02:07:10.984Z,98.19
2022-11-15T02:09:38.734Z,98.65
2022-11-15T02:12:07.459Z,98.26
2022-11-15T02:14:34.940Z,98.24
2022-11-15T02:17:19.848Z,98.56
2022-11-15T02:20:04.661Z,97.86
2022-11-15T02:22:44.519Z,97.43
2022-11-15T02:25:16.771Z,97.33
2022-11-15T02:28:00.758Z,97.58
2022-11-15T02:30:39.137Z,97.74
2022-11-15T02:33:18.009Z,98.18
2022-11-15T02:35:59.647Z,98.31
2022-11-15T02:38:31.634Z,97.67
2022-11-15T02:41:00.990Z,97.96
2022-11-15T02:43:59.804Z,97.80
2022-11-15T02:47:03.726Z,98.27
2022-11-15T02:49:33.580Z,97.92
2022-11-15T02:52:00.160Z,98.67
2022-11-15T02:54:30.960Z,98.68
2022-11-15T02:57:07.062Z,98.57
2022-11-15T02:59:54.304Z,99.28
2022-11-15T03:03:06.891Z,99.79
2022-11-15T03:05:42.216Z,99.82
2022-11-15T03:08:11.472Z,99.57
2022-11-15T03:10:52.580Z,99.32
2022-11-15T03:13:27.555Z,99.63
2022-11-15T03:16:04.587Z,99.61
2022-11-15T03:18:34.954Z,99.32
2022-11-15T03:21:06.505Z,99.46
2022-11-15T03:23:34.613Z,99.37
2022-11-15T03:26:04.497Z,100.00
2022-11-15T03:28:39.644Z,100.00
2022-11-15T03:31:27.131Z,100.00
2022-11-15T03:33:56.792Z,99.95
2022-11-15T03:36:26.105Z,99.52
2022-11-15T03:38:58.313Z,99.41
2022-11-15T03:41:34.258Z,98.80
2022-11-15T03:44:32.953Z,98.27
2022-11-15T03:47:09.892Z,98.26
2022-11-15T03:49:39.778Z,97.72
2022-11-15T03:52:07.248Z,98.14
2022-11-15T03:54:33.858Z,98.43
2022-11-15T03:57:00.533Z,98.69
2022-11-15T03:59:27.222Z,98.79
2022-11-15T04:01:53.973Z,100.00
2022-11-15T04:04:20.665Z,100.00
2022-11-15T04:06:47.396Z,100.00
2022-11-15T04:09:14.084Z,100.00
2022-11-15T04:11:40.643Z,100.00
2022-11-15T04:14:07.355Z,100.00
2022-11-15T04:16:33.946Z,100.00
2022-11-15T04:19:19.135Z,100.00
2022-11-15T04:22:04.262Z,100.00
2022-11-15T04:24:30.920Z,100.00
2022-11-15T04:26:57.527Z,100.00
2022-11-15T04:29:36.433Z,100.00
2022-11-15T04:32:07.909Z,100.00
2022-11-15T04:34:34.453Z,100.00
2022-11-15T04:37:13.173Z,100.00
2022-11-15T04:39:44.399Z,100.00
2022-11-15T04:42:11.905Z,100.00
2022-11-15T04:44:38.500Z,100.00
2022-11-15T04:47:05.647Z,99.82
2022-11-15T04:49:32.423Z,99.42
2022-11-15T04:51:59.151Z,99.73
2022-11-15T04:54:25.837Z,99.36
2022-11-15T04:56:52.496Z,99.20
2022-11-15T04:59:19.069Z,99.50
2022-11-15T05:01:45.653Z,100.00
2022-11-15T05:04:21.899Z,100.00
2022-11-15T05:06:50.110Z,100.00
2022-11-15T05:09:18.295Z,100.00
2022-11-15T05:11:45.237Z,100.00
2022-11-15T05:14:12.064Z,100.00
2022-11-15T05:16:38.861Z,100.00
2022-11-15T05:19:05.950Z,100.00
2022-11-15T05:21:33.334Z,100.00
2022-11-15T05:24:00.039Z,99.63
2022-11-15T05:26:27.234Z,99.04
2022-11-15T05:28:56.217Z,98.32
2022-11-15T05:31:23.334Z,99.19
2022-11-15T05:33:51.839Z,98.50
2022-11-15T05:36:42.011Z,98.49
2022-11-15T05:39:10.219Z,98.97
2022-11-15T05:41:40.356Z,98.19
2022-11-15T05:44:10.525Z,98.18
2022-11-15T05:46:40.970Z,98.19
2022-11-15T05:49:11.591Z,98.08
2022-11-15T05:51:38.522Z,97.40
2022-11-15T05:54:05.303Z,98.77
2022-11-15T05:56:32.257Z,98.50
2022-11-15T05:59:00.177Z,97.00
2022-11-15T06:01:27.902Z,97.64
2022-11-15T06:03:54.836Z,97.57
2022-11-15T06:06:21.621Z,98.52
2022-11-15T06:08:48.998Z,99.33
2022-11-15T06:11:15.632Z,99.25
2022-11-15T06:13:42.268Z,99.16
2022-11-15T06:16:08.946Z,99.51
2022-11-15T06:18:36.506Z,99.64
2022-11-15T06:21:03.349Z,100.00
2022-11-15T06:23:33.594Z,100.00
2022-11-15T06:26:00.767Z,100.00
2022-11-15T06:28:31.121Z,100.00
2022-11-15T06:31:03.017Z,100.00
2022-11-15T06:33:30.000Z,100.00
2022-11-15T06:35:57.030Z,100.00
2022-11-15T06:38:23.717Z,100.00
2022-11-15T06:40:50.296Z,100.00
2022-11-15T06:43:17.166Z,100.00
2022-11-15T06:45:43.845Z,100.00
2022-11-15T06:48:10.488Z,100.00
2022-11-15T06:50:37.063Z,100.00
2022-11-15T06:53:06.794Z,100.00
2022-11-15T06:55:33.284Z,100.00
2022-11-15T06:57:59.767Z,100.00
2022-11-15T07:00:26.451Z,100.00
2022-11-15T07:02:53.152Z,100.00
2022-11-15T07:05:19.996Z,100.00
2022-11-15T07:07:53.479Z,100.00
2022-11-15T07:10:20.237Z,100.00
2022-11-15T07:12:50.170Z,100.00
2022-11-15T07:15:21.133Z,100.00
2022-11-15T07:17:47.796Z,100.00
2022-11-15T07:20:15.564Z,100.00
2022-11-15T07:22:42.591Z,100.00
2022-11-15T07:25:10.503Z,100.00
2022-11-15T07:27:37.125Z,100.00
2022-11-15T07:30:04.514Z,100.00
2022-11-15T07:32:31.186Z,100.00
2022-11-15T07:34:57.878Z,100.00
2022-11-15T07:37:24.543Z,100.00
2022-11-15T07:39:51.109Z,100.00
2022-11-15T07:42:36.414Z,100.00
2022-11-15T07:45:03.254Z,100.00
2022-11-15T07:47:30.314Z,100.00
2022-11-15T07:49:56.921Z,100.00
2022-11-15T07:52:23.795Z,100.00
2022-11-15T07:54:50.462Z,100.00
2022-11-15T07:57:17.210Z,100.00
2022-11-15T07:59:43.890Z,98.99
2022-11-15T08:02:10.990Z,99.79
2022-11-15T08:04:37.738Z,99.58
2022-11-15T08:07:04.389Z,97.38
2022-11-15T08:09:30.981Z,96.18
2022-11-15T08:11:57.645Z,95.08
2022-11-15T08:14:24.398Z,92.74
2022-11-15T08:16:51.037Z,91.79
2022-11-15T08:19:17.704Z,91.23
2022-11-15T08:21:44.409Z,90.33
2022-11-15T08:24:12.126Z,89.87
2022-11-15T08:26:39.122Z,89.21
2022-11-15T08:29:05.828Z,88.71
2022-11-15T08:31:32.487Z,88.36
2022-11-15T08:33:59.232Z,87.92
2022-11-15T08:36:25.921Z,86.62
2022-11-15T08:38:52.499Z,86.03
2022-11-15T08:41:34.421Z,85.45
2022-11-15T08:44:01.041Z,84.64
2022-11-15T08:46:27.692Z,83.46
2022-11-15T08:48:54.381Z,83.89
2022-11-15T08:51:21.196Z,83.48
2022-11-15T08:53:48.045Z,82.67
2022-11-15T08:56:16.244Z,81.66
2022-11-15T08:58:43.798Z,80.75
2022-11-15T09:01:21.616Z,80.82
2022-11-15T09:03:48.504Z,79.78
2022-11-15T09:06:15.941Z,79.15
2022-11-15T09:08:49.809Z,78.80
2022-11-15T09:11:19.012Z,78.15
2022-11-15T09:13:45.612Z,78.19
2022-11-15T09:16:13.671Z,77.67
2022-11-15T09:18:40.403Z,77.68
2022-11-15T09:21:07.166Z,77.31
2022-11-15T09:23:34.056Z,77.40
2022-11-15T09:26:02.411Z,76.86
2022-11-15T09:28:30.282Z,76.61
2022-11-15T09:31:01.878Z,77.48
2022-11-15T09:33:29.511Z,76.75
2022-11-15T09:36:18.569Z,77.33
2022-11-15T09:38:46.166Z,77.67
2022-11-15T09:41:12.733Z,77.17
2022-11-15T09:44:03.521Z,77.19
2022-11-15T09:46:38.901Z,77.13
2022-11-15T09:49:05.869Z,77.49
2022-11-15T09:51:48.955Z,78.13
2022-11-15T09:57:20.061Z,78.33
2022-11-15T10:00:04.218Z,78.61
2022-11-15T10:03:10.269Z,77.44
2022-11-15T10:05:41.547Z,77.85
2022-11-15T10:08:30.461Z,76.80
2022-11-15T10:11:35.526Z,76.64
2022-11-15T10:13:53.694Z,76.15
2022-11-15T10:16:26.413Z,75.91
2022-11-15T10:19:08.039Z,74.54
2022-11-15T10:21:59.434Z,73.00
2022-11-15T10:24:29.423Z,72.61
2022-11-15T10:26:57.143Z,71.83
2022-11-15T10:29:27.075Z,70.88
2022-11-15T10:31:54.441Z,70.76
2022-11-15T10:34:24.122Z,70.07
2022-11-15T10:37:03.131Z,69.11
2022-11-15T10:39:30.264Z,68.95
2022-11-15T10:41:56.978Z,69.00
2022-11-15T10:44:29.949Z,69.65
2022-11-15T10:46:56.450Z,69.21
2022-11-15T10:49:31.337Z,69.86
2022-11-15T10:52:13.244Z,69.79
2022-11-15T10:54:50.836Z,68.74
2022-11-15T10:57:25.296Z,70.14
2022-11-15T11:00:21.372Z,69.20
2022-11-15T11:02:56.738Z,68.99
2022-11-15T11:05:42.585Z,69.97
2022-11-15T11:08:12.340Z,69.85
2022-11-15T11:11:00.068Z,68.83
2022-11-15T11:13:45.833Z,68.84
2022-11-15T11:16:15.166Z,68.19
2022-11-15T11:19:02.197Z,69.39
2022-11-15T11:21:46.935Z,68.80
2022-11-15T11:24:26.474Z,69.88
2022-11-15T11:26:57.149Z,70.00
2022-11-15T11:29:50.362Z,68.80
2022-11-15T11:32:51.273Z,69.05
2022-11-15T11:35:23.600Z,70.04
2022-11-15T11:38:10.985Z,69.45
2022-11-15T11:41:02.541Z,69.12
2022-11-15T11:43:38.877Z,69.13
2022-11-15T11:46:26.110Z,68.38
2022-11-15T11:49:00.102Z,68.54
2022-11-15T11:51:40.550Z,68.76
2022-11-15T11:54:15.395Z,69.12
2022-11-15T11:56:45.546Z,68.72
2022-11-15T11:59:49.338Z,68.97
2022-11-15T12:02:43.224Z,69.89
2022-11-15T12:05:30.154Z,68.43
2022-11-15T12:08:05.674Z,68.89
2022-11-15T12:10:35.664Z,69.34
2022-11-15T12:13:08.985Z,69.65
2022-11-15T12:15:46.717Z,68.99
2022-11-15T12:18:16.274Z,69.80
2022-11-15T12:20:53.901Z,69.59
2022-11-15T12:23:51.750Z,70.33
2022-11-15T12:26:23.521Z,69.86
2022-11-15T12:29:07.625Z,70.15
2022-11-15T12:31:35.219Z,70.23
2022-11-15T12:34:46.202Z,69.92
2022-11-15T12:37:38.801Z,70.38
2022-11-15T12:40:24.738Z,69.47
2022-11-15T12:43:27.010Z,70.39
2022-11-15T12:45:53.753Z,69.85
2022-11-15T12:48:20.523Z,70.04
2022-11-15T12:50:56.368Z,70.10
2022-11-15T12:53:25.883Z,70.45
2022-11-15T12:56:04.900Z,70.05
2022-11-15T12:58:56.181Z,69.96
2022-11-15T13:01:32.214Z,69.60
2022-11-15T13:04:20.816Z,69.70
2022-11-15T13:06:51.734Z,70.12
2022-11-15T13:09:33.720Z,70.18
2022-11-15T13:12:05.081Z,70.54
2022-11-15T13:14:40.959Z,71.33
2022-11-15T13:17:22.724Z,71.01
2022-11-15T13:20:02.302Z,71.21
2022-11-15T13:22:51.936Z,70.64
2022-11-15T13:25:39.689Z,70.48
2022-11-15T13:28:15.425Z,70.39
2022-11-15T13:30:48.029Z,70.54
2022-11-15T13:33:39.465Z,70.74
2022-11-15T13:36:14.591Z,70.34
2022-11-15T13:38:42.380Z,70.79
2022-11-15T13:41:18.806Z,71.02
2022-11-15T13:43:45.780Z,72.11
2022-11-15T13:46:17.010Z,72.20
2022-11-15T13:48:45.383Z,72.88
2022-11-15T13:51:27.065Z,75.22
2022-11-15T13:54:03.005Z,70.34
2022-11-15T13:56:32.605Z,70.56
2022-11-15T13:58:59.727Z,71.12
2022-11-15T14:01:30.560Z,71.54
2022-11-15T14:04:00.240Z,70.67
2022-11-15T14:06:29.821Z,70.51
2022-11-15T14:09:39.380Z,70.01
2022-11-15T14:12:34.358Z,68.42
2022-11-15T14:15:18.873Z,67.91
2022-11-15T14:17:50.072Z,66.79
2022-11-15T14:20:26.353Z,66.42
2022-11-15T14:22:58.496Z,66.20
2022-11-15T14:25:53.605Z,65.97
2022-11-15T14:28:25.978Z,66.01
2022-11-15T14:30:58.590Z,67.06
2022-11-15T14:33:30.906Z,66.45
2022-11-15T14:36:03.194Z,66.48
2022-11-15T14:38:30.989Z,66.70
2022-11-15T14:40:58.656Z,67.33
2022-11-15T14:43:27.904Z,67.59
2022-11-15T14:45:54.705Z,68.69
2022-11-15T14:48:21.622Z,68.69
2022-11-15T14:50:48.290Z,69.13
2022-11-15T14:53:17.634Z,69.70
2022-11-15T14:55:45.085Z,70.41
2022-11-15T14:58:11.951Z,70.84
2022-11-15T15:00:41.417Z,71.04
2022-11-15T15:03:08.501Z,71.53
2022-11-15T15:05:36.854Z,72.72
2022-11-15T15:08:03.947Z,72.84
2022-11-15T15:10:41.425Z,73.26
2022-11-15T15:13:19.019Z,73.55
2022-11-15T15:15:45.800Z,74.51
2022-11-15T15:18:12.514Z,74.78
2022-11-15T15:20:41.287Z,75.41
2022-11-15T15:23:20.115Z,75.41
2022-11-15T15:25:50.079Z,76.07
2022-11-15T15:28:17.119Z,76.08
2022-11-15T15:30:44.160Z,76.69
2022-11-15T15:33:10.823Z,77.00
2022-11-15T15:35:37.801Z,76.58
2022-11-15T15:38:05.006Z,77.35
2022-11-15T15:40:34.245Z,78.02
2022-11-15T15:43:01.398Z,77.00
2022-11-15T15:45:29.280Z,78.18
2022-11-15T15:47:56.435Z,78.62
2022-11-15T15:50:33.227Z,79.34
2022-11-15T15:53:01.767Z,79.44
2022-11-15T15:55:28.896Z,79.75
2022-11-15T15:57:56.267Z,80.56
2022-11-15T16:00:25.940Z,81.10
2022-11-15T16:02:53.381Z,81.71
2022-11-15T16:05:20.080Z,80.86
2022-11-15T16:07:48.531Z,80.16
2022-11-15T16:10:18.025Z,80.42
2022-11-15T16:12:45.344Z,81.20
2022-11-15T16:15:12.136Z,80.95
2022-11-15T16:17:43.408Z,81.55
2022-11-15T16:20:22.357Z,81.45
2022-11-15T16:22:48.840Z,81.76
2022-11-15T16:25:15.497Z,81.88
2022-11-15T16:27:46.044Z,82.07
2022-11-15T16:30:17.835Z,82.72
2022-11-15T16:32:44.649Z,82.87
2022-11-15T16:35:16.404Z,83.26
2022-11-15T16:37:45.231Z,83.94
2022-11-15T16:40:23.662Z,83.32
2022-11-15T16:42:50.229Z,82.47
2022-11-15T16:45:16.923Z,82.58
2022-11-15T16:47:43.606Z,81.08
2022-11-15T16:50:43.219Z,79.63
2022-11-15T16:53:09.781Z,79.51
2022-11-15T16:55:36.470Z,78.10
2022-11-15T16:58:03.275Z,78.74
2022-11-15T17:00:29.934Z,79.68
2022-11-15T17:02:56.810Z,80.54
2022-11-15T17:05:24.676Z,79.96
2022-11-15T17:07:55.250Z,80.44
2022-11-15T17:10:24.014Z,80.61
2022-11-15T17:12:51.285Z,80.96
2022-11-15T17:15:18.604Z,81.27
2022-11-15T17:17:50.910Z,81.63
2022-11-15T17:20:19.463Z,82.78
2022-11-15T17:22:47.307Z,83.18
2022-11-15T17:25:14.170Z,83.21
2022-11-15T17:27:40.976Z,83.23
2022-11-15T17:30:08.108Z,83.96
2022-11-15T17:32:37.991Z,83.83
2022-11-15T17:35:12.060Z,83.85
2022-11-15T17:37:41.736Z,84.21
2022-11-15T17:40:08.895Z,84.26
2022-11-15T17:42:35.593Z,84.05
2022-11-15T17:45:08.165Z,84.64
2022-11-15T17:47:36.068Z,83.90
2022-11-15T17:50:02.637Z,82.69
2022-11-15T17:52:29.336Z,81.12
2022-11-15T17:54:55.930Z,80.31
2022-11-15T17:57:22.786Z,80.16
2022-11-15T17:59:49.348Z,79.97
2022-11-15T18:02:16.014Z,79.87
2022-11-15T18:04:42.745Z,79.79
2022-11-15T18:07:11.883Z,79.77
2022-11-15T18:09:42.372Z,79.44
2022-11-15T18:12:09.465Z,78.68
2022-11-15T18:14:36.341Z,78.96
2022-11-15T18:17:03.073Z,79.14
2022-11-15T18:19:29.778Z,79.36
2022-11-15T18:21:56.564Z,79.01
2022-11-15T18:24:31.748Z,79.00
2022-11-15T18:27:00.059Z,78.98
2022-11-15T18:29:27.170Z,78.86
2022-11-15T18:31:57.695Z,78.89
2022-11-15T18:34:28.904Z,79.41
2022-11-15T18:36:55.571Z,78.84
2022-11-15T18:39:22.169Z,79.15
2022-11-15T18:41:49.110Z,79.25
2022-11-15T18:44:16.669Z,79.52
2022-11-15T18:46:45.233Z,79.73
2022-11-15T18:49:14.488Z,79.18
2022-11-15T18:51:42.275Z,79.51
2022-11-15T18:54:11.170Z,79.05
2022-11-15T18:56:38.243Z,78.73
2022-11-15T18:59:05.471Z,78.15
2022-11-15T19:01:37.848Z,78.01
2022-11-15T19:04:10.694Z,78.58
2022-11-15T19:06:40.456Z,78.63
2022-11-15T19:09:08.548Z,77.94
2022-11-15T19:11:37.365Z,78.47
2022-11-15T19:14:06.501Z,77.79
2022-11-15T19:16:36.274Z,78.84
2022-11-15T19:19:05.533Z,78.55
2022-11-15T19:21:32.783Z,78.33
2022-11-15T19:24:00.325Z,78.93
2022-11-15T19:26:28.844Z,78.95
2022-11-15T19:29:00.284Z,78.88
2022-11-15T19:31:29.386Z,79.09
2022-11-15T19:33:58.051Z,78.98
2022-11-15T19:36:27.866Z,79.24
2022-11-15T19:38:57.603Z,79.33
2022-11-15T19:41:25.359Z,79.26
2022-11-15T19:43:53.104Z,79.72
2022-11-15T19:46:22.001Z,79.85
2022-11-15T19:48:49.368Z,79.91
2022-11-15T19:51:22.051Z,80.39
2022-11-15T19:53:50.326Z,81.00
2022-11-15T19:56:18.688Z,81.46
2022-11-15T19:58:46.459Z,81.16
2022-11-15T20:01:31.116Z,81.48
2022-11-15T20:03:59.729Z,81.99
2022-11-15T20:06:35.127Z,81.86
2022-11-15T20:09:01.711Z,82.71
2022-11-15T20:11:28.510Z,82.37
2022-11-15T20:13:57.870Z,82.39
2022-11-15T20:16:25.568Z,83.05
2022-11-15T20:18:53.386Z,83.46
2022-11-15T20:21:20.910Z,83.49
2022-11-15T20:23:56.653Z,83.59
2022-11-15T20:26:23.344Z,83.57
2022-11-15T20:28:50.340Z,83.81
2022-11-15T20:31:19.443Z,84.13
2022-11-15T20:33:46.074Z,83.60
2022-11-15T20:36:15.664Z,84.41
2022-11-15T20:38:43.475Z,83.79
2022-11-15T20:41:11.014Z,84.40
2022-11-15T20:43:37.826Z,84.39
2022-11-15T20:46:04.756Z,84.44
2022-11-15T20:48:32.288Z,84.89
2022-11-15T20:51:12.599Z,85.04
2022-11-15T20:53:40.272Z,85.26
2022-11-15T20:56:10.894Z,85.35
2022-11-15T20:58:38.308Z,85.69
2022-11-15T21:01:07.013Z,85.26
2022-11-15T21:03:35.102Z,85.04
2022-11-15T21:06:02.390Z,84.91
2022-11-15T21:08:49.462Z,85.39
2022-11-15T21:11:34.858Z,85.34
2022-11-15T21:14:06.286Z,85.63
2022-11-15T21:16:35.590Z,85.22
2022-11-15T21:19:02.204Z,85.45
2022-11-15T21:21:28.915Z,85.50
2022-11-15T21:23:55.493Z,85.57
2022-11-15T21:26:22.240Z,85.81
2022-11-15T21:28:48.848Z,86.00
2022-11-15T21:31:15.557Z,85.53
2022-11-15T21:33:42.255Z,84.86
2022-11-15T21:36:09.375Z,84.82
2022-11-15T21:38:36.247Z,84.22
2022-11-15T21:41:04.205Z,84.58
2022-11-15T21:43:30.886Z,84.38
2022-11-15T21:46:00.383Z,84.53
2022-11-15T21:48:28.385Z,85.02
2022-11-15T21:50:58.744Z,84.75
2022-11-15T21:53:26.322Z,84.18
2022-11-15T21:55:53.112Z,84.17
2022-11-15T21:58:20.794Z,84.26
2022-11-15T22:01:06.438Z,84.64
2022-11-15T22:03:33.440Z,84.55
2022-11-15T22:06:00.734Z,83.98
2022-11-15T22:08:28.170Z,84.23
2022-11-15T22:10:56.907Z,84.76
2022-11-15T22:13:24.653Z,84.99
2022-11-15T22:15:53.579Z,84.34
2022-11-15T22:18:26.259Z,84.47
2022-11-15T22:21:06.477Z,84.26
2022-11-15T22:23:34.590Z,84.05
2022-11-15T22:26:01.284Z,83.71
2022-11-15T22:28:28.027Z,83.82
2022-11-15T22:30:55.401Z,83.59
2022-11-15T22:33:24.803Z,83.91
2022-11-15T22:35:52.275Z,84.33
2022-11-15T22:38:19.295Z,84.29
2022-11-15T22:40:46.767Z,84.47
2022-11-15T22:43:15.143Z,84.37
2022-11-15T22:45:52.110Z,83.61
2022-11-15T22:48:27.261Z,83.58
2022-11-15T22:50:54.497Z,83.76
2022-11-15T22:53:21.868Z,83.62
2022-11-15T22:55:57.156Z,83.28
2022-11-15T22:58:25.998Z,83.96
2022-11-15T23:00:57.612Z,83.92
2022-11-15T23:03:25.469Z,83.79
2022-11-15T23:05:52.779Z,83.92
2022-11-15T23:08:20.234Z,82.86
2022-11-15T23:11:05.178Z,83.43
2022-11-15T23:13:33.693Z,83.30
2022-11-15T23:16:22.616Z,82.36
2022-11-15T23:18:51.507Z,82.26
2022-11-15T23:21:46.813Z,82.19
2022-11-15T23:24:14.457Z,82.19
2022-11-15T23:26:42.058Z,82.63
2022-11-15T23:29:10.534Z,82.56
2022-11-15T23:32:01.666Z,82.27
2022-11-15T23:34:30.488Z,82.11
2022-11-15T23:36:57.405Z,81.61
2022-11-15T23:39:24.064Z,81.93
2022-11-15T23:41:50.729Z,82.36
2022-11-15T23:44:17.407Z,82.23
2022-11-15T23:46:44.344Z,82.18
2022-11-15T23:49:11.189Z,81.49
2022-11-15T23:51:37.800Z,81.66
2022-11-15T23:54:04.562Z,81.70
2022-11-15T23:56:31.296Z,81.38
2022-11-15T23:58:58.024Z,81.42
